sensor_id;sensor_type;location;lat;lon;timestamp;P1;durP1;ratioP1;P2;durP2;ratioP2
35364;SDS011;21464;48.112;11.530;2022-07-03T00:01:05;5.75;;;5.00;;
35364;SDS011;21464;48.112;11.530;2022-07-03T00:03:32;5.90;;;5.30;;
35364;SDS011;21464;48.112;11.530;2022-07-03T00:05:59;10.25;;;4.95;;
35364;SDS011;21464;48.112;11.530;2022-07-03T00:08:25;6.00;;;4.88;;
35364;SDS011;21464;48.112;11.530;2022-07-03T00:10:51;4.80;;;4.35;;
35364;SDS011;21464;48.112;11.530;2022-07-03T00:13:17;4.78;;;4.38;;
35364;SDS011;21464;48.112;11.530;2022-07-03T00:15:44;5.65;;;4.47;;
35364;SDS011;21464;48.112;11.530;2022-07-03T00:18:10;5.43;;;4.75;;
35364;SDS011;21464;48.112;11.530;2022-07-03T00:20:40;4.38;;;3.97;;
35364;SDS011;21464;48.112;11.530;2022-07-03T00:23:12;5.40;;;4.22;;
35364;SDS011;21464;48.112;11.530;2022-07-03T00:25:41;4.40;;;4.00;;
35364;SDS011;21464;48.112;11.530;2022-07-03T00:28:07;5.13;;;4.22;;
35364;SDS011;21464;48.112;11.530;2022-07-03T00:30:34;4.47;;;4.00;;
35364;SDS011;21464;48.112;11.530;2022-07-03T00:33:01;4.70;;;4.30;;
35364;SDS011;21464;48.112;11.530;2022-07-03T00:35:30;5.03;;;4.00;;
35364;SDS011;21464;48.112;11.530;2022-07-03T00:37:58;4.53;;;4.13;;
35364;SDS011;21464;48.112;11.530;2022-07-03T00:40:24;4.50;;;4.10;;
35364;SDS011;21464;48.112;11.530;2022-07-03T00:42:50;4.45;;;4.05;;
35364;SDS011;21464;48.112;11.530;2022-07-03T00:45:20;3.60;;;3.33;;
35364;SDS011;21464;48.112;11.530;2022-07-03T00:47:47;6.28;;;3.72;;
35364;SDS011;21464;48.112;11.530;2022-07-03T00:50:14;5.70;;;3.55;;
35364;SDS011;21464;48.112;11.530;2022-07-03T00:52:45;3.35;;;3.10;;
35364;SDS011;21464;48.112;11.530;2022-07-03T00:55:16;4.40;;;3.22;;
35364;SDS011;21464;48.112;11.530;2022-07-03T00:57:46;3.25;;;2.95;;
35364;SDS011;21464;48.112;11.530;2022-07-03T01:00:16;3.35;;;3.03;;
35364;SDS011;21464;48.112;11.530;2022-07-03T01:03:17;3.25;;;2.95;;
35364;SDS011;21464;48.112;11.530;2022-07-03T01:05:43;4.05;;;3.05;;
35364;SDS011;21464;48.112;11.530;2022-07-03T01:16:24;4.68;;;2.58;;
35364;SDS011;21464;48.112;11.530;2022-07-03T01:19:04;2.78;;;2.58;;
35364;SDS011;21464;48.112;11.530;2022-07-03T01:27:07;2.97;;;2.60;;
35364;SDS011;21464;48.112;11.530;2022-07-03T01:29:56;3.45;;;3.13;;
35364;SDS011;21464;48.112;11.530;2022-07-03T01:32:31;3.00;;;2.80;;
35364;SDS011;21464;48.112;11.530;2022-07-03T01:35:00;3.15;;;2.70;;
35364;SDS011;21464;48.112;11.530;2022-07-03T01:37:27;2.80;;;2.60;;
35364;SDS011;21464;48.112;11.530;2022-07-03T01:39:57;3.03;;;2.30;;
35364;SDS011;21464;48.112;11.530;2022-07-03T01:42:24;2.70;;;2.50;;
35364;SDS011;21464;48.112;11.530;2022-07-03T01:44:51;3.13;;;2.83;;
35364;SDS011;21464;48.112;11.530;2022-07-03T01:47:19;2.58;;;2.45;;
35364;SDS011;21464;48.112;11.530;2022-07-03T01:49:47;2.55;;;2.35;;
35364;SDS011;21464;48.112;11.530;2022-07-03T01:52:14;2.72;;;2.17;;
35364;SDS011;21464;48.112;11.530;2022-07-03T01:54:41;2.80;;;2.60;;
35364;SDS011;21464;48.112;11.530;2022-07-03T01:57:08;2.90;;;2.70;;
35364;SDS011;21464;48.112;11.530;2022-07-03T01:59:34;2.40;;;2.30;;
35364;SDS011;21464;48.112;11.530;2022-07-03T02:02:09;2.60;;;2.40;;
35364;SDS011;21464;48.112;11.530;2022-07-03T02:10:07;2.50;;;2.30;;
35364;SDS011;21464;48.112;11.530;2022-07-03T02:13:00;3.25;;;2.20;;
35364;SDS011;21464;48.112;11.530;2022-07-03T02:15:31;2.15;;;2.03;;
35364;SDS011;21464;48.112;11.530;2022-07-03T02:18:05;2.13;;;2.03;;
35364;SDS011;21464;48.112;11.530;2022-07-03T02:20:36;2.00;;;1.90;;
35364;SDS011;21464;48.112;11.530;2022-07-03T02:23:06;2.75;;;2.15;;
35364;SDS011;21464;48.112;11.530;2022-07-03T02:25:34;2.30;;;2.20;;
35364;SDS011;21464;48.112;11.530;2022-07-03T02:28:05;2.30;;;2.10;;
35364;SDS011;21464;48.112;11.530;2022-07-03T02:30:42;2.00;;;1.90;;
35364;SDS011;21464;48.112;11.530;2022-07-03T02:33:09;2.13;;;2.03;;
35364;SDS011;21464;48.112;11.530;2022-07-03T02:35:37;2.42;;;2.22;;
35364;SDS011;21464;48.112;11.530;2022-07-03T02:38:04;3.15;;;2.30;;
35364;SDS011;21464;48.112;11.530;2022-07-03T02:40:45;2.50;;;2.13;;
35364;SDS011;21464;48.112;11.530;2022-07-03T02:43:21;2.00;;;1.90;;
35364;SDS011;21464;48.112;11.530;2022-07-03T02:45:51;2.58;;;2.38;;
35364;SDS011;21464;48.112;11.530;2022-07-03T02:48:36;3.40;;;2.20;;
35364;SDS011;21464;48.112;11.530;2022-07-03T02:51:10;2.42;;;2.22;;
35364;SDS011;21464;48.112;11.530;2022-07-03T03:05:45;2.15;;;2.03;;
35364;SDS011;21464;48.112;11.530;2022-07-03T03:10:27;2.92;;;2.00;;
35364;SDS011;21464;48.112;11.530;2022-07-03T03:13:04;2.33;;;2.10;;
35364;SDS011;21464;48.112;11.530;2022-07-03T03:15:32;3.47;;;2.13;;
35364;SDS011;21464;48.112;11.530;2022-07-03T03:18:11;2.00;;;1.90;;
35364;SDS011;21464;48.112;11.530;2022-07-03T03:20:38;2.20;;;2.10;;
35364;SDS011;21464;48.112;11.530;2022-07-03T03:26:11;1.98;;;1.88;;
35364;SDS011;21464;48.112;11.530;2022-07-03T03:28:40;2.33;;;1.90;;
35364;SDS011;21464;48.112;11.530;2022-07-03T03:31:08;2.13;;;2.03;;
35364;SDS011;21464;48.112;11.530;2022-07-03T03:33:36;2.35;;;2.25;;
35364;SDS011;21464;48.112;11.530;2022-07-03T03:36:09;2.38;;;1.92;;
35364;SDS011;21464;48.112;11.530;2022-07-03T03:38:39;2.85;;;2.05;;
35364;SDS011;21464;48.112;11.530;2022-07-03T03:41:06;2.17;;;2.08;;
35364;SDS011;21464;48.112;11.530;2022-07-03T03:43:33;4.80;;;4.40;;
35364;SDS011;21464;48.112;11.530;2022-07-03T03:46:00;3.83;;;3.03;;
35364;SDS011;21464;48.112;11.530;2022-07-03T03:48:27;2.80;;;2.60;;
35364;SDS011;21464;48.112;11.530;2022-07-03T03:50:56;2.30;;;2.10;;
35364;SDS011;21464;48.112;11.530;2022-07-03T03:53:23;2.63;;;2.42;;
35364;SDS011;21464;48.112;11.530;2022-07-03T03:55:54;2.90;;;2.70;;
35364;SDS011;21464;48.112;11.530;2022-07-03T03:58:23;3.30;;;2.67;;
35364;SDS011;21464;48.112;11.530;2022-07-03T04:00:50;2.20;;;2.10;;
35364;SDS011;21464;48.112;11.530;2022-07-03T04:03:18;2.35;;;2.25;;
35364;SDS011;21464;48.112;11.530;2022-07-03T04:05:45;2.15;;;2.05;;
35364;SDS011;21464;48.112;11.530;2022-07-03T04:08:11;2.88;;;2.22;;
35364;SDS011;21464;48.112;11.530;2022-07-03T04:10:38;2.40;;;2.20;;
35364;SDS011;21464;48.112;11.530;2022-07-03T04:13:05;2.40;;;2.20;;
35364;SDS011;21464;48.112;11.530;2022-07-03T04:15:31;2.75;;;2.17;;
35364;SDS011;21464;48.112;11.530;2022-07-03T04:17:57;2.60;;;2.40;;
35364;SDS011;21464;48.112;11.530;2022-07-03T04:20:23;3.53;;;2.40;;
35364;SDS011;21464;48.112;11.530;2022-07-03T04:22:49;3.55;;;2.45;;
35364;SDS011;21464;48.112;11.530;2022-07-03T04:25:16;2.40;;;2.30;;
35364;SDS011;21464;48.112;11.530;2022-07-03T04:27:43;2.55;;;2.30;;
35364;SDS011;21464;48.112;11.530;2022-07-03T04:30:10;2.38;;;2.20;;
35364;SDS011;21464;48.112;11.530;2022-07-03T04:32:37;2.67;;;2.20;;
35364;SDS011;21464;48.112;11.530;2022-07-03T04:35:04;2.30;;;2.10;;
35364;SDS011;21464;48.112;11.530;2022-07-03T04:37:31;3.40;;;2.30;;
35364;SDS011;21464;48.112;11.530;2022-07-03T04:39:57;4.05;;;2.30;;
35364;SDS011;21464;48.112;11.530;2022-07-03T04:42:24;2.20;;;2.10;;
35364;SDS011;21464;48.112;11.530;2022-07-03T04:44:50;2.40;;;2.30;;
35364;SDS011;21464;48.112;11.530;2022-07-03T04:47:16;2.40;;;2.30;;
35364;SDS011;21464;48.112;11.530;2022-07-03T04:49:42;2.60;;;2.40;;
35364;SDS011;21464;48.112;11.530;2022-07-03T04:52:08;2.17;;;2.08;;
35364;SDS011;21464;48.112;11.530;2022-07-03T04:54:35;2.50;;;2.30;;
35364;SDS011;21464;48.112;11.530;2022-07-03T04:57:01;2.58;;;2.35;;
35364;SDS011;21464;48.112;11.530;2022-07-03T04:59:29;2.67;;;2.47;;
35364;SDS011;21464;48.112;11.530;2022-07-03T05:01:55;2.50;;;2.40;;
35364;SDS011;21464;48.112;11.530;2022-07-03T05:04:21;2.75;;;2.30;;
35364;SDS011;21464;48.112;11.530;2022-07-03T05:06:48;2.53;;;2.33;;
35364;SDS011;21464;48.112;11.530;2022-07-03T05:09:14;2.50;;;2.20;;
35364;SDS011;21464;48.112;11.530;2022-07-03T05:11:41;2.72;;;2.42;;
35364;SDS011;21464;48.112;11.530;2022-07-03T05:14:07;2.10;;;2.00;;
35364;SDS011;21464;48.112;11.530;2022-07-03T05:16:33;2.50;;;2.30;;
35364;SDS011;21464;48.112;11.530;2022-07-03T05:18:59;2.97;;;2.40;;
35364;SDS011;21464;48.112;11.530;2022-07-03T05:21:26;3.13;;;2.20;;
35364;SDS011;21464;48.112;11.530;2022-07-03T05:23:52;2.30;;;2.20;;
35364;SDS011;21464;48.112;11.530;2022-07-03T05:26:18;2.70;;;2.50;;
35364;SDS011;21464;48.112;11.530;2022-07-03T05:28:44;2.47;;;2.30;;
35364;SDS011;21464;48.112;11.530;2022-07-03T05:31:11;2.03;;;1.92;;
35364;SDS011;21464;48.112;11.530;2022-07-03T05:33:37;2.75;;;2.50;;
35364;SDS011;21464;48.112;11.530;2022-07-03T05:36:03;2.25;;;2.10;;
35364;SDS011;21464;48.112;11.530;2022-07-03T05:38:30;2.22;;;2.03;;
35364;SDS011;21464;48.112;11.530;2022-07-03T05:41:15;2.20;;;2.10;;
35364;SDS011;21464;48.112;11.530;2022-07-03T05:43:41;2.40;;;1.80;;
35364;SDS011;21464;48.112;11.530;2022-07-03T05:46:08;2.05;;;1.90;;
35364;SDS011;21464;48.112;11.530;2022-07-03T05:48:34;2.08;;;1.90;;
35364;SDS011;21464;48.112;11.530;2022-07-03T05:51:00;2.00;;;1.90;;
35364;SDS011;21464;48.112;11.530;2022-07-03T05:53:26;2.00;;;1.90;;
35364;SDS011;21464;48.112;11.530;2022-07-03T05:55:53;2.08;;;1.85;;
35364;SDS011;21464;48.112;11.530;2022-07-03T05:58:19;1.88;;;1.77;;
35364;SDS011;21464;48.112;11.530;2022-07-03T06:00:45;4.55;;;4.15;;
35364;SDS011;21464;48.112;11.530;2022-07-03T06:03:12;2.10;;;2.00;;
35364;SDS011;21464;48.112;11.530;2022-07-03T06:05:38;2.40;;;2.20;;
35364;SDS011;21464;48.112;11.530;2022-07-03T06:08:05;3.55;;;3.25;;
35364;SDS011;21464;48.112;11.530;2022-07-03T06:10:32;2.00;;;1.90;;
35364;SDS011;21464;48.112;11.530;2022-07-03T06:12:58;2.70;;;1.77;;
35364;SDS011;21464;48.112;11.530;2022-07-03T06:15:24;2.17;;;2.00;;
35364;SDS011;21464;48.112;11.530;2022-07-03T06:17:51;1.83;;;1.73;;
35364;SDS011;21464;48.112;11.530;2022-07-03T06:20:17;1.70;;;1.67;;
35364;SDS011;21464;48.112;11.530;2022-07-03T06:22:44;2.28;;;2.08;;
35364;SDS011;21464;48.112;11.530;2022-07-03T06:25:10;1.98;;;1.88;;
35364;SDS011;21464;48.112;11.530;2022-07-03T06:27:37;1.77;;;1.67;;
35364;SDS011;21464;48.112;11.530;2022-07-03T06:30:03;1.60;;;1.50;;
35364;SDS011;21464;48.112;11.530;2022-07-03T06:32:30;1.73;;;1.60;;
35364;SDS011;21464;48.112;11.530;2022-07-03T06:34:56;1.90;;;1.70;;
35364;SDS011;21464;48.112;11.530;2022-07-03T06:37:22;1.80;;;1.70;;
35364;SDS011;21464;48.112;11.530;2022-07-03T06:39:48;1.73;;;1.60;;
35364;SDS011;21464;48.112;11.530;2022-07-03T06:42:15;1.50;;;1.50;;
35364;SDS011;21464;48.112;11.530;2022-07-03T06:44:42;2.35;;;1.77;;
35364;SDS011;21464;48.112;11.530;2022-07-03T06:47:10;1.80;;;1.70;;
35364;SDS011;21464;48.112;11.530;2022-07-03T06:49:36;2.03;;;1.60;;
35364;SDS011;21464;48.112;11.530;2022-07-03T06:52:03;1.75;;;1.40;;
35364;SDS011;21464;48.112;11.530;2022-07-03T06:54:29;1.73;;;1.63;;
35364;SDS011;21464;48.112;11.530;2022-07-03T06:56:56;1.60;;;1.55;;
35364;SDS011;21464;48.112;11.530;2022-07-03T06:59:22;1.30;;;1.30;;
35364;SDS011;21464;48.112;11.530;2022-07-03T07:01:48;1.67;;;1.58;;
35364;SDS011;21464;48.112;11.530;2022-07-03T07:04:14;1.95;;;1.85;;
35364;SDS011;21464;48.112;11.530;2022-07-03T07:06:40;2.20;;;1.98;;
35364;SDS011;21464;48.112;11.530;2022-07-03T07:09:06;2.08;;;1.98;;
35364;SDS011;21464;48.112;11.530;2022-07-03T07:11:33;2.70;;;1.70;;
35364;SDS011;21464;48.112;11.530;2022-07-03T07:13:59;1.92;;;1.83;;
35364;SDS011;21464;48.112;11.530;2022-07-03T07:16:25;1.70;;;1.50;;
35364;SDS011;21464;48.112;11.530;2022-07-03T07:18:51;1.90;;;1.80;;
35364;SDS011;21464;48.112;11.530;2022-07-03T07:21:18;2.60;;;1.70;;
35364;SDS011;21464;48.112;11.530;2022-07-03T07:23:44;1.88;;;1.77;;
35364;SDS011;21464;48.112;11.530;2022-07-03T07:26:10;1.80;;;1.70;;
35364;SDS011;21464;48.112;11.530;2022-07-03T07:28:36;1.70;;;1.60;;
35364;SDS011;21464;48.112;11.530;2022-07-03T07:31:03;1.73;;;1.63;;
35364;SDS011;21464;48.112;11.530;2022-07-03T07:33:29;2.08;;;1.92;;
35364;SDS011;21464;48.112;11.530;2022-07-03T07:35:55;1.70;;;1.60;;
35364;SDS011;21464;48.112;11.530;2022-07-03T07:38:22;1.95;;;1.60;;
35364;SDS011;21464;48.112;11.530;2022-07-03T07:40:48;2.05;;;1.88;;
35364;SDS011;21464;48.112;11.530;2022-07-03T07:43:14;1.90;;;1.80;;
35364;SDS011;21464;48.112;11.530;2022-07-03T07:45:40;1.98;;;1.70;;
35364;SDS011;21464;48.112;11.530;2022-07-03T07:48:06;2.00;;;1.90;;
35364;SDS011;21464;48.112;11.530;2022-07-03T07:50:33;2.20;;;1.88;;
35364;SDS011;21464;48.112;11.530;2022-07-03T07:52:59;3.20;;;1.77;;
35364;SDS011;21464;48.112;11.530;2022-07-03T07:55:25;1.65;;;1.65;;
35364;SDS011;21464;48.112;11.530;2022-07-03T07:57:51;2.00;;;1.90;;
35364;SDS011;21464;48.112;11.530;2022-07-03T08:00:18;1.70;;;1.60;;
35364;SDS011;21464;48.112;11.530;2022-07-03T08:02:45;1.85;;;1.70;;
35364;SDS011;21464;48.112;11.530;2022-07-03T08:05:30;1.73;;;1.63;;
35364;SDS011;21464;48.112;11.530;2022-07-03T08:10:29;2.17;;;1.70;;
35364;SDS011;21464;48.112;11.530;2022-07-03T08:12:55;2.00;;;1.90;;
35364;SDS011;21464;48.112;11.530;2022-07-03T08:15:21;2.97;;;1.73;;
35364;SDS011;21464;48.112;11.530;2022-07-03T08:17:47;1.80;;;1.70;;
35364;SDS011;21464;48.112;11.530;2022-07-03T08:20:14;1.70;;;1.60;;
35364;SDS011;21464;48.112;11.530;2022-07-03T08:22:40;1.80;;;1.70;;
35364;SDS011;21464;48.112;11.530;2022-07-03T08:25:06;2.63;;;2.08;;
35364;SDS011;21464;48.112;11.530;2022-07-03T08:27:32;1.98;;;1.88;;
35364;SDS011;21464;48.112;11.530;2022-07-03T08:29:59;1.77;;;1.67;;
35364;SDS011;21464;48.112;11.530;2022-07-03T08:32:25;1.80;;;1.70;;
35364;SDS011;21464;48.112;11.530;2022-07-03T08:34:51;1.67;;;1.60;;
35364;SDS011;21464;48.112;11.530;2022-07-03T08:37:17;1.60;;;1.50;;
35364;SDS011;21464;48.112;11.530;2022-07-03T08:39:43;1.70;;;1.55;;
35364;SDS011;21464;48.112;11.530;2022-07-03T08:42:10;1.67;;;1.58;;
35364;SDS011;21464;48.112;11.530;2022-07-03T08:44:37;1.75;;;1.65;;
35364;SDS011;21464;48.112;11.530;2022-07-03T08:47:03;1.40;;;1.40;;
35364;SDS011;21464;48.112;11.530;2022-07-03T08:49:33;1.40;;;1.40;;
35364;SDS011;21464;48.112;11.530;2022-07-03T08:52:00;1.48;;;1.38;;
35364;SDS011;21464;48.112;11.530;2022-07-03T08:54:27;1.60;;;1.50;;
35364;SDS011;21464;48.112;11.530;2022-07-03T08:56:53;1.73;;;1.60;;
35364;SDS011;21464;48.112;11.530;2022-07-03T08:59:20;1.77;;;1.65;;
35364;SDS011;21464;48.112;11.530;2022-07-03T09:01:47;1.63;;;1.52;;
35364;SDS011;21464;48.112;11.530;2022-07-03T09:04:13;1.52;;;1.40;;
35364;SDS011;21464;48.112;11.530;2022-07-03T09:06:40;1.75;;;1.52;;
35364;SDS011;21464;48.112;11.530;2022-07-03T09:09:07;1.40;;;1.30;;
35364;SDS011;21464;48.112;11.530;2022-07-03T09:11:36;1.50;;;1.38;;
35364;SDS011;21464;48.112;11.530;2022-07-03T09:14:03;1.95;;;1.20;;
35364;SDS011;21464;48.112;11.530;2022-07-03T09:16:34;1.20;;;1.20;;
35364;SDS011;21464;48.112;11.530;2022-07-03T09:19:01;1.25;;;1.25;;
35364;SDS011;21464;48.112;11.530;2022-07-03T09:21:35;1.50;;;1.40;;
35364;SDS011;21464;48.112;11.530;2022-07-03T09:24:03;1.60;;;1.50;;
35364;SDS011;21464;48.112;11.530;2022-07-03T09:26:31;1.65;;;1.50;;
35364;SDS011;21464;48.112;11.530;2022-07-03T09:28:58;1.42;;;1.15;;
35364;SDS011;21464;48.112;11.530;2022-07-03T09:31:25;1.20;;;1.20;;
35364;SDS011;21464;48.112;11.530;2022-07-03T09:34:02;1.30;;;1.20;;
35364;SDS011;21464;48.112;11.530;2022-07-03T09:36:43;1.48;;;1.30;;
35364;SDS011;21464;48.112;11.530;2022-07-03T09:42:08;1.20;;;1.13;;
35364;SDS011;21464;48.112;11.530;2022-07-03T09:47:12;2.45;;;1.25;;
35364;SDS011;21464;48.112;11.530;2022-07-03T09:57:28;1.02;;;1.02;;
35364;SDS011;21464;48.112;11.530;2022-07-03T10:08:08;1.88;;;1.10;;
35364;SDS011;21464;48.112;11.530;2022-07-03T10:10:42;1.08;;;1.08;;
35364;SDS011;21464;48.112;11.530;2022-07-03T10:13:09;1.15;;;1.05;;
35364;SDS011;21464;48.112;11.530;2022-07-03T10:15:36;2.42;;;1.10;;
35364;SDS011;21464;48.112;11.530;2022-07-03T10:18:04;1.10;;;0.90;;
35364;SDS011;21464;48.112;11.530;2022-07-03T10:20:35;1.48;;;0.90;;
35364;SDS011;21464;48.112;11.530;2022-07-03T10:23:07;1.00;;;0.88;;
35364;SDS011;21464;48.112;11.530;2022-07-03T10:25:34;1.23;;;1.23;;
35364;SDS011;21464;48.112;11.530;2022-07-03T10:28:01;1.58;;;1.40;;
35364;SDS011;21464;48.112;11.530;2022-07-03T10:30:28;3.97;;;1.40;;
35364;SDS011;21464;48.112;11.530;2022-07-03T10:32:55;1.40;;;1.00;;
35364;SDS011;21464;48.112;11.530;2022-07-03T10:35:23;1.10;;;1.00;;
35364;SDS011;21464;48.112;11.530;2022-07-03T10:41:02;1.45;;;0.80;;
35364;SDS011;21464;48.112;11.530;2022-07-03T10:43:46;0.90;;;0.90;;
35364;SDS011;21464;48.112;11.530;2022-07-03T10:46:31;1.10;;;0.88;;
35364;SDS011;21464;48.112;11.530;2022-07-03T10:49:08;0.70;;;0.70;;
35364;SDS011;21464;48.112;11.530;2022-07-03T11:07:22;0.80;;;0.80;;
35364;SDS011;21464;48.112;11.530;2022-07-03T11:12:59;0.95;;;0.77;;
35364;SDS011;21464;48.112;11.530;2022-07-03T11:25:48;0.90;;;0.80;;
35364;SDS011;21464;48.112;11.530;2022-07-03T11:39:02;0.90;;;0.90;;
35364;SDS011;21464;48.112;11.530;2022-07-03T11:44:04;0.85;;;0.85;;
35364;SDS011;21464;48.112;11.530;2022-07-03T11:46:32;0.80;;;0.80;;
35364;SDS011;21464;48.112;11.530;2022-07-03T11:51:39;0.80;;;0.80;;
35364;SDS011;21464;48.112;11.530;2022-07-03T11:54:07;1.08;;;1.00;;
35364;SDS011;21464;48.112;11.530;2022-07-03T11:56:33;0.80;;;0.80;;
35364;SDS011;21464;48.112;11.530;2022-07-03T11:59:02;0.80;;;0.80;;
35364;SDS011;21464;48.112;11.530;2022-07-03T12:01:33;1.73;;;0.80;;
35364;SDS011;21464;48.112;11.530;2022-07-03T12:04:20;1.00;;;1.00;;
35364;SDS011;21464;48.112;11.530;2022-07-03T12:06:51;0.90;;;0.90;;
35364;SDS011;21464;48.112;11.530;2022-07-03T12:09:29;1.20;;;0.85;;
35364;SDS011;21464;48.112;11.530;2022-07-03T12:12:03;2.38;;;0.75;;
35364;SDS011;21464;48.112;11.530;2022-07-03T12:17:26;1.73;;;0.90;;
35364;SDS011;21464;48.112;11.530;2022-07-03T12:19:59;0.90;;;0.90;;
35364;SDS011;21464;48.112;11.530;2022-07-03T12:22:27;0.90;;;0.90;;
35364;SDS011;21464;48.112;11.530;2022-07-03T12:24:58;0.95;;;0.95;;
35364;SDS011;21464;48.112;11.530;2022-07-03T12:27:27;0.90;;;0.90;;
35364;SDS011;21464;48.112;11.530;2022-07-03T12:29:54;1.33;;;0.90;;
35364;SDS011;21464;48.112;11.530;2022-07-03T12:32:21;1.05;;;0.98;;
35364;SDS011;21464;48.112;11.530;2022-07-03T12:34:47;1.27;;;1.17;;
35364;SDS011;21464;48.112;11.530;2022-07-03T12:37:14;0.90;;;0.85;;
35364;SDS011;21464;48.112;11.530;2022-07-03T12:39:46;1.00;;;1.00;;
35364;SDS011;21464;48.112;11.530;2022-07-03T12:42:17;1.58;;;0.90;;
35364;SDS011;21464;48.112;11.530;2022-07-03T12:45:00;2.85;;;1.00;;
35364;SDS011;21464;48.112;11.530;2022-07-03T12:47:28;0.90;;;0.88;;
35364;SDS011;21464;48.112;11.530;2022-07-03T12:49:55;1.05;;;0.80;;
35364;SDS011;21464;48.112;11.530;2022-07-03T12:52:31;1.15;;;1.10;;
35364;SDS011;21464;48.112;11.530;2022-07-03T12:54:58;1.55;;;1.10;;
35364;SDS011;21464;48.112;11.530;2022-07-03T12:57:26;1.02;;;1.02;;
35364;SDS011;21464;48.112;11.530;2022-07-03T13:00:28;0.85;;;0.85;;
35364;SDS011;21464;48.112;11.530;2022-07-03T13:02:54;1.70;;;1.00;;
35364;SDS011;21464;48.112;11.530;2022-07-03T13:05:21;1.08;;;1.08;;
35364;SDS011;21464;48.112;11.530;2022-07-03T13:07:52;1.80;;;1.30;;
35364;SDS011;21464;48.112;11.530;2022-07-03T13:10:23;1.38;;;1.27;;
35364;SDS011;21464;48.112;11.530;2022-07-03T13:12:53;1.10;;;1.00;;
35364;SDS011;21464;48.112;11.530;2022-07-03T13:15:23;1.20;;;1.10;;
35364;SDS011;21464;48.112;11.530;2022-07-03T13:22:50;1.45;;;1.17;;
35364;SDS011;21464;48.112;11.530;2022-07-03T13:25:17;1.30;;;1.05;;
35364;SDS011;21464;48.112;11.530;2022-07-03T13:27:43;1.48;;;1.00;;
35364;SDS011;21464;48.112;11.530;2022-07-03T13:30:11;1.33;;;1.20;;
35364;SDS011;21464;48.112;11.530;2022-07-03T13:32:39;0.88;;;0.88;;
35364;SDS011;21464;48.112;11.530;2022-07-03T13:35:05;1.67;;;1.10;;
35364;SDS011;21464;48.112;11.530;2022-07-03T13:37:32;1.20;;;1.20;;
35364;SDS011;21464;48.112;11.530;2022-07-03T13:40:00;1.15;;;1.10;;
35364;SDS011;21464;48.112;11.530;2022-07-03T13:42:26;1.52;;;1.20;;
35364;SDS011;21464;48.112;11.530;2022-07-03T13:44:52;1.20;;;1.13;;
35364;SDS011;21464;48.112;11.530;2022-07-03T13:47:18;1.40;;;1.30;;
35364;SDS011;21464;48.112;11.530;2022-07-03T13:49:45;1.10;;;1.10;;
35364;SDS011;21464;48.112;11.530;2022-07-03T13:52:11;1.27;;;1.17;;
35364;SDS011;21464;48.112;11.530;2022-07-03T13:54:37;1.88;;;1.17;;
35364;SDS011;21464;48.112;11.530;2022-07-03T13:57:03;1.90;;;1.30;;
35364;SDS011;21464;48.112;11.530;2022-07-03T13:59:30;2.92;;;1.50;;
35364;SDS011;21464;48.112;11.530;2022-07-03T14:01:59;2.65;;;1.30;;
35364;SDS011;21464;48.112;11.530;2022-07-03T14:04:26;1.27;;;1.20;;
35364;SDS011;21464;48.112;11.530;2022-07-03T14:06:52;1.80;;;1.52;;
35364;SDS011;21464;48.112;11.530;2022-07-03T14:09:19;1.58;;;1.30;;
35364;SDS011;21464;48.112;11.530;2022-07-03T14:11:45;1.33;;;1.23;;
35364;SDS011;21464;48.112;11.530;2022-07-03T14:14:13;1.58;;;1.05;;
35364;SDS011;21464;48.112;11.530;2022-07-03T14:16:39;1.92;;;1.40;;
35364;SDS011;21464;48.112;11.530;2022-07-03T14:19:05;2.08;;;1.27;;
35364;SDS011;21464;48.112;11.530;2022-07-03T14:21:32;1.58;;;1.02;;
35364;SDS011;21464;48.112;11.530;2022-07-03T14:23:58;1.73;;;1.17;;
35364;SDS011;21464;48.112;11.530;2022-07-03T14:26:24;1.48;;;1.30;;
35364;SDS011;21464;48.112;11.530;2022-07-03T14:29:09;1.75;;;1.02;;
35364;SDS011;21464;48.112;11.530;2022-07-03T14:31:54;1.30;;;1.20;;
35364;SDS011;21464;48.112;11.530;2022-07-03T14:34:40;1.45;;;1.35;;
35364;SDS011;21464;48.112;11.530;2022-07-03T14:37:07;1.33;;;1.13;;
35364;SDS011;21464;48.112;11.530;2022-07-03T14:39:33;1.90;;;1.17;;
35364;SDS011;21464;48.112;11.530;2022-07-03T14:42:00;3.97;;;1.10;;
35364;SDS011;21464;48.112;11.530;2022-07-03T14:44:28;1.75;;;1.17;;
35364;SDS011;21464;48.112;11.530;2022-07-03T14:46:55;1.30;;;1.27;;
35364;SDS011;21464;48.112;11.530;2022-07-03T14:49:21;3.22;;;1.08;;
35364;SDS011;21464;48.112;11.530;2022-07-03T14:51:48;1.65;;;1.40;;
35364;SDS011;21464;48.112;11.530;2022-07-03T14:54:18;2.35;;;1.42;;
35364;SDS011;21464;48.112;11.530;2022-07-03T14:56:47;1.45;;;1.35;;
35364;SDS011;21464;48.112;11.530;2022-07-03T14:59:17;1.17;;;1.10;;
35364;SDS011;21464;48.112;11.530;2022-07-03T15:01:47;1.40;;;1.30;;
35364;SDS011;21464;48.112;11.530;2022-07-03T15:04:19;1.65;;;1.33;;
35364;SDS011;21464;48.112;11.530;2022-07-03T15:06:52;1.42;;;1.15;;
35364;SDS011;21464;48.112;11.530;2022-07-03T15:09:21;1.15;;;1.10;;
35364;SDS011;21464;48.112;11.530;2022-07-03T15:11:55;3.70;;;1.63;;
35364;SDS011;21464;48.112;11.530;2022-07-03T15:14:43;1.40;;;1.30;;
35364;SDS011;21464;48.112;11.530;2022-07-03T15:17:12;1.25;;;1.15;;
35364;SDS011;21464;48.112;11.530;2022-07-03T15:19:38;2.60;;;1.17;;
35364;SDS011;21464;48.112;11.530;2022-07-03T15:22:06;1.30;;;1.20;;
35364;SDS011;21464;48.112;11.530;2022-07-03T15:24:36;2.10;;;1.20;;
35364;SDS011;21464;48.112;11.530;2022-07-03T15:27:04;2.40;;;1.23;;
35364;SDS011;21464;48.112;11.530;2022-07-03T15:29:31;1.40;;;1.30;;
35364;SDS011;21464;48.112;11.530;2022-07-03T15:32:03;1.40;;;1.30;;
35364;SDS011;21464;48.112;11.530;2022-07-03T15:34:30;1.20;;;1.17;;
35364;SDS011;21464;48.112;11.530;2022-07-03T15:40:05;1.40;;;1.30;;
35364;SDS011;21464;48.112;11.530;2022-07-03T15:47:58;1.30;;;1.30;;
35364;SDS011;21464;48.112;11.530;2022-07-03T15:53:11;2.40;;;1.40;;
35364;SDS011;21464;48.112;11.530;2022-07-03T15:55:41;4.43;;;1.40;;
35364;SDS011;21464;48.112;11.530;2022-07-03T15:58:10;1.58;;;1.45;;
35364;SDS011;21464;48.112;11.530;2022-07-03T16:00:38;1.50;;;1.40;;
35364;SDS011;21464;48.112;11.530;2022-07-03T16:03:27;2.40;;;1.45;;
35364;SDS011;21464;48.112;11.530;2022-07-03T16:05:54;1.60;;;1.50;;
35364;SDS011;21464;48.112;11.530;2022-07-03T16:08:21;1.50;;;1.40;;
35364;SDS011;21464;48.112;11.530;2022-07-03T16:10:50;1.63;;;1.40;;
35364;SDS011;21464;48.112;11.530;2022-07-03T16:13:18;1.73;;;1.40;;
35364;SDS011;21464;48.112;11.530;2022-07-03T16:15:45;1.70;;;1.60;;
35364;SDS011;21464;48.112;11.530;2022-07-03T16:18:12;1.75;;;1.27;;
35364;SDS011;21464;48.112;11.530;2022-07-03T16:20:39;1.40;;;1.30;;
35364;SDS011;21464;48.112;11.530;2022-07-03T16:23:06;1.92;;;1.38;;
35364;SDS011;21464;48.112;11.530;2022-07-03T16:25:35;4.28;;;1.35;;
35364;SDS011;21464;48.112;11.530;2022-07-03T16:28:03;1.58;;;1.48;;
35364;SDS011;21464;48.112;11.530;2022-07-03T16:30:31;2.42;;;1.40;;
35364;SDS011;21464;48.112;11.530;2022-07-03T16:32:59;1.70;;;1.52;;
35364;SDS011;21464;48.112;11.530;2022-07-03T16:35:45;1.58;;;1.48;;
35364;SDS011;21464;48.112;11.530;2022-07-03T16:38:16;3.42;;;1.63;;
35364;SDS011;21464;48.112;11.530;2022-07-03T16:40:45;1.35;;;1.25;;
35364;SDS011;21464;48.112;11.530;2022-07-03T16:43:13;2.92;;;1.70;;
35364;SDS011;21464;48.112;11.530;2022-07-03T16:45:40;2.17;;;1.65;;
35364;SDS011;21464;48.112;11.530;2022-07-03T16:48:24;1.73;;;1.63;;
35364;SDS011;21464;48.112;11.530;2022-07-03T16:50:55;2.05;;;1.52;;